Home > Products > Valid Products > TAF

000
FTUS43 KMQT 301100
TAFCMX
TAF
KCMX 301137Z 3012/0112 04004KT P6SM OVC017
      TEMPO 3012/3014 SCT017
     FM301400 05007KT P6SM BKN020
      TEMPO 3014/3016 SCT020
     FM301600 08007KT P6SM SCT025
     FM010200 11005KT P6SM SCT250=



000
FTUS43 KMQT 301100
TAFSAW
TAF
KSAW 301137Z 3012/0112 01011KT P6SM OVC012
     FM301700 02011KT P6SM OVC020
     FM302100 03007KT P6SM SCT025
     FM010100 VRB03KT P6SM SKC
     FM010600 16003KT P6SM OVC010
     FM010900 16003KT P6SM OVC006
      AMD LTD TO CLD VIS AND WIND 0102/0110=



000
FTUS43 KMQT 301000 AAA
TAFSAW
TAF AMD
KSAW 301053Z 3011/0106 01011KT P6SM OVC010
     FM301600 02010KT P6SM OVC020
     FM302100 03007KT P6SM SCT025
     FM010100 VRB03KT P6SM SKC
      AMD LTD TO CLD VIS AND WIND TIL 301000=



000
FTUS43 KMQT 300500
TAFSAW
TAF
KSAW 300532Z 3006/0106 01011KT P6SM OVC010
     FM301200 02010KT P6SM OVC020
     FM302100 03007KT P6SM SCT025
     FM010100 VRB03KT P6SM SKC
      AMD LTD TO CLD VIS AND WIND TIL 301000=



000
FTUS43 KMQT 300500
TAFCMX
TAF
KCMX 300532Z 3006/0106 04007KT P6SM OVC015
      TEMPO 3009/3012 SCT015
     FM301200 05007KT P6SM BKN020
      TEMPO 3012/3015 SCT020
     FM301500 08007KT P6SM SCT025=



000
FTUS43 KMQT 292300
TAFSAW
TAF
KSAW 292320Z 3000/3024 35012G18KT P6SM OVC008
     FM300400 01010KT P6SM OVC012
     FM301200 02008KT P6SM BKN025
     FM302100 03007KT P6SM SCT030
      AMD LTD TO CLD VIS AND WIND 3002/3010=



000
FTUS43 KMQT 292300
TAFCMX
TAF
KCMX 292320Z 3000/3024 04008KT P6SM OVC012
     FM300900 05007KT P6SM BKN025
     FM301200 05006KT P6SM BKN040
     FM301500 08007KT P6SM SCT040=



000
FTUS43 KMQT 291900 AAA
TAFCMX
TAF AMD
KCMX 291912Z 2919/3018 02010G17KT P6SM -DZ OVC008
     FM300000 04008KT P6SM OVC015=



000
FTUS43 KMQT 291700
TAFSAW
TAF
KSAW 291720Z 2918/3018 36014G20KT 3SM -DZ BR OVC007
     FM300600 01010KT P6SM OVC010
      AMD LTD TO CLD VIS AND WIND 3002/3010=



000
FTUS43 KMQT 291700
TAFCMX
TAF
KCMX 291720Z 2918/3018 02010G17KT 5SM -DZ BR OVC007
     FM300000 04008KT P6SM OVC015=



000
FTUS43 KMQT 291500 AAA
TAFCMX
TAF AMD
KCMX 291500Z 2915/3012 02010G17KT P6SM SCT007 OVC015
      TEMPO 2915/2919 3SM -DZ BR OVC007
     FM300000 04008KT P6SM BKN020=



000
FTUS43 KMQT 291300 AAA
TAFSAW
TAF AMD
KSAW 291353Z 2914/3012 36014G20KT 5SM -SHRA BR OVC007
     FM291600 01013G19KT P6SM -RA OVC006
     FM300000 01010KT P6SM OVC010
      AMD LTD TO CLD VIS AND WIND 3002/3010=



000
FTUS43 KMQT 291100
TAFSAW
TAF
KSAW 291138Z 2912/3012 36014G20KT 5SM -SHRA BR OVC004
     FM291600 01013G19KT P6SM -RA OVC006
     FM300000 01010KT P6SM OVC010
      AMD LTD TO CLD VIS AND WIND 3002/3010=



000
FTUS43 KMQT 291100
TAFCMX
TAF
KCMX 291138Z 2912/3012 02010G17KT P6SM SCT008 OVC015
      TEMPO 2912/2915 3SM -DZ BR OVC008
     FM300000 04008KT P6SM BKN020=



000
FTUS43 KMQT 290800 AAA
TAFCMX
TAF AMD
KCMX 290824Z 2908/3006 02011G18KT 6SM -SHRA BR SCT008 OVC015
     FM291600 04014G21KT P6SM -SHRA BKN015 OVC025
     FM292200 06009KT P6SM BKN025=



000
FTUS43 KMQT 290500
TAFSAW
TAF
KSAW 290526Z 2906/3006 01008KT 1/2SM FG OVC002
     FM290900 02011KT 2SM -SHRA OVC003
     FM291600 01012G18KT 3SM -RA BR OVC007
     FM292100 01012G20KT P6SM -SHRA BKN015
      AMD LTD TO CLD VIS AND WIND TIL 291000=



000
FTUS43 KMQT 290500
TAFCMX
TAF
KCMX 290526Z 2906/3006 03011G16KT 3SM -SHRA BR OVC004
     FM291400 03014G19KT 6SM -RA BR OVC008
     FM291600 04014G21KT P6SM -SHRA BKN015
     FM292200 06009KT P6SM BKN025=



000
FTUS43 KMQT 290400 AAA
TAFSAW
TAF AMD
KSAW 290454Z 2905/2924 01009KT 1SM BR OVC002
     FM290900 35008KT 3SM -SHRA OVC003
     FM291400 01012KT 3SM -RA BR OVC007
     FM292000 01012G20KT P6SM -SHRA BKN015
      AMD LTD TO CLD VIS AND WIND 2902/2910=



000
FTUS43 KMQT 290100 AAA
TAFCMX
TAF AMD
KCMX 290117Z 2901/2924 12007KT 5SM BR BKN003
     FM290600 04011KT 4SM -SHRA BR OVC003
     FM291200 03014G19KT 6SM -RA BR OVC008
     FM291600 04014G21KT P6SM -SHRA BKN015
     FM292200 06009KT P6SM BKN025=



000
FTUS43 KMQT 282300
TAFCMX
TAF
KCMX 282331Z 2900/2924 01006KT P6SM BKN100
     FM290200 03007KT P6SM BKN025
     FM290300 02009KT P6SM -SHRA OVC010
     FM290400 03009KT 6SM -SHRA BR OVC008
     FM290700 04011KT 6SM -SHRA BR OVC003
     FM291200 03014G19KT 6SM -RA BR OVC008
     FM291600 04014G21KT P6SM -SHRA BKN015
     FM292200 06009KT P6SM BKN025=



000
FTUS43 KMQT 282300
TAFSAW
TAF
KSAW 282331Z 2900/2924 08005KT P6SM BKN100
     FM290200 00000KT P6SM BKN050
     FM290700 35005KT P6SM BKN025
     FM290900 35008KT 3SM -SHRA BKN003
     FM291400 01012KT 3SM -RA BR OVC007
     FM292000 01012G20KT P6SM -SHRA BKN015
      AMD LTD TO CLD VIS AND WIND 2902/2910=



000
FTUS43 KMQT 281700
TAFCMX
TAF
KCMX 281737Z 2818/2918 30010KT P6SM FEW150
     FM282300 01003KT P6SM SCT140
     FM290200 03007KT P6SM BKN025
     FM290300 02009KT P6SM -SHRA OVC010
     FM290400 03009KT 6SM -SHRA BR OVC008
     FM290700 04011KT 6SM -SHRA BR OVC003
     FM291200 03014G19KT 6SM -RA BR OVC008=



000
FTUS43 KMQT 281700
TAFSAW
TAF
KSAW 281737Z 2818/2918 26004KT P6SM SCT060
     FM282000 31003KT P6SM SCT080
     FM290200 00000KT P6SM BKN050
     FM290700 35005KT P6SM BKN025
     FM290900 35008KT 3SM -SHRA BKN003
     FM291200 01011KT 3SM -RA BR OVC003
      AMD LTD TO CLD VIS AND WIND 2902/2910=



000
FTUS43 KMQT 281100
TAFSAW
TAF
KSAW 281135Z 2812/2912 24006KT P6SM SCT060
     FM282000 02007KT P6SM BKN050
     FM290100 VRB03KT P6SM BKN050
     FM290800 35008KT P6SM VCSH OVC004
      AMD LTD TO CLD VIS AND WIND 2902/2910=



000
FTUS43 KMQT 281100
TAFCMX
TAF
KCMX 281135Z 2812/2912 27010KT P6SM SCT060
     FM282300 05007KT P6SM BKN015
     FM290300 04013KT P6SM VCSH OVC008
     FM290800 02014G21KT 6SM -SHRA OVC004=



000
FTUS43 KMQT 280500
TAFCMX
TAF
KCMX 280521Z 2806/2906 26007KT P6SM SKC
     FM281500 27010KT P6SM SCT200
     FM282100 01008KT P6SM BKN200
     FM290300 06007KT P6SM BKN015=



000
FTUS43 KMQT 280500
TAFSAW
TAF
KSAW 280521Z 2806/2906 18005KT P6SM SCT200
     FM281000 21004KT 3SM BR SCT200
     FM281400 24009KT P6SM SCT200
     FM282100 07007KT P6SM BKN100
     FM290300 VRB03KT P6SM BKN050
      AMD LTD TO CLD VIS AND WIND TIL 281000=



000
FTUS43 KMQT 272300
TAFSAW
TAF
KSAW 272327Z 2800/2824 18007KT P6SM SCT200
     FM281000 21004KT 3SM BR SCT200
     FM281400 24009KT P6SM SCT200
     FM282100 08007KT P6SM BKN100
      AMD LTD TO CLD VIS AND WIND 2802/2810=



000
FTUS43 KMQT 272300
TAFCMX
TAF
KCMX 272327Z 2800/2824 VRB03KT P6SM SKC
     FM280200 26007KT P6SM SKC
     FM281500 27010KT P6SM SCT200
     FM282100 01008KT P6SM BKN200=



000
FTUS43 KMQT 271700
TAFSAW
TAF
KSAW 271721Z 2718/2818 19009KT P6SM SKC
     FM280000 19004KT P6SM SCT250
     FM281000 21004KT 3SM BR SCT250
     FM281400 24009KT P6SM SCT250
      AMD LTD TO CLD VIS AND WIND 2802/2810=



000
FTUS43 KMQT 271700
TAFCMX
TAF
KCMX 271721Z 2718/2818 21009KT P6SM SKC
     FM280200 26007KT P6SM SKC
     FM281500 27010KT P6SM SCT200=



000
FTUS43 KMQT 271300 AAA
TAFSAW
TAF AMD
KSAW 271305Z 2713/2812 VRB03KT 1/2SM FG VV002
     FM271400 19009KT P6SM SKC
     FM280000 19004KT P6SM SCT250
     FM281000 20003KT 3SM BR SCT250
      AMD LTD TO CLD VIS AND WIND 2802/2810=



    US Dept of Commerce
    National Oceanic and Atmospheric Administration
    National Weather Service
    1325 East West Highway
    Silver Spring, MD 20910
    Page Author: NWS Internet Services Team
Disclaimer
Information Quality
Credits
Glossary
Privacy Policy
Freedom of Information Act (FOIA)
About Us
Career Opportunities